Time;durP1;ratioP1;P1;durP2;ratioP2;P2;SDS_P1;SDS_P2;PMS_P1;PMS_P2;Temp;Humidity;BMP_temperature;BMP_pressure;BME280_temperature;BME280_humidity;BME280_pressure;Samples;Min_cycle;Max_cycle;Signal;HPM_P1;HPM_P2
2022/07/26 00:01:30;;;;;;;6.43;1.48;;;19.40;99.90;;;;;;5013020;28;20198;-80
2022/07/26 00:03:55;;;;;;;3.97;1.27;;;19.40;99.90;;;;;;5015311;28;20226;-80
2022/07/26 00:06:21;;;;;;;9.93;1.85;;;19.30;99.90;;;;;;5015415;28;20192;-80
2022/07/26 00:08:47;;;;;;;12.10;1.70;;;19.20;99.90;;;;;;5019205;28;20542;-81
2022/07/26 00:11:14;;;;;;;11.00;2.17;;;19.20;99.90;;;;;;5020144;28;20165;-81
2022/07/26 00:13:39;;;;;;;5.72;1.58;;;19.40;99.90;;;;;;5020148;28;20173;-80
2022/07/26 00:16:05;;;;;;;4.03;1.63;;;19.40;99.90;;;;;;5020540;28;20230;-80
2022/07/26 00:18:31;;;;;;;5.75;1.75;;;19.40;99.90;;;;;;5018856;28;20218;-80
2022/07/26 00:20:57;;;;;;;10.65;1.83;;;19.20;99.90;;;;;;5021019;28;20172;-81
2022/07/26 00:23:22;;;;;;;6.20;1.60;;;19.10;99.90;;;;;;5020274;28;20191;-83
2022/07/26 00:25:48;;;;;;;18.63;2.22;;;19.20;99.90;;;;;;5022706;28;20208;-82
2022/07/26 00:28:14;;;;;;;4.57;1.63;;;19.20;99.90;;;;;;5023213;28;20171;-81
2022/07/26 00:30:40;;;;;;;11.07;1.38;;;19.30;99.90;;;;;;5025120;28;20165;-82
2022/07/26 00:33:06;;;;;;;10.00;1.75;;;19.30;99.90;;;;;;5023999;28;20173;-80
2022/07/26 00:35:32;;;;;;;14.95;1.92;;;19.20;99.90;;;;;;5021802;28;20168;-81
2022/07/26 00:37:58;;;;;;;6.68;1.83;;;19.10;99.90;;;;;;5027403;28;20188;-80
2022/07/26 00:40:23;;;;;;;13.98;1.52;;;19.00;99.90;;;;;;5031285;28;20176;-80
2022/07/26 00:42:49;;;;;;;9.93;1.70;;;19.20;99.90;;;;;;5026000;28;20172;-83
2022/07/26 00:45:15;;;;;;;10.88;1.65;;;19.20;99.90;;;;;;5015182;28;20168;-84
2022/07/26 00:47:41;;;;;;;9.10;2.17;;;19.20;99.90;;;;;;5013593;28;20169;-87
2022/07/26 00:50:11;;;;;;;4.30;1.45;;;19.20;99.90;;;;;;5015494;28;20175;-82
2022/07/26 00:52:37;;;;;;;9.27;2.38;;;19.20;99.90;;;;;;5014105;28;20169;-85
2022/07/26 00:55:06;;;;;;;16.48;2.10;;;19.20;99.90;;;;;;5012385;28;20197;-79
2022/07/26 00:57:32;;;;;;;14.65;1.58;;;19.30;99.90;;;;;;5011087;28;20215;-82
2022/07/26 01:00:00;;;;;;;4.95;2.03;;;19.40;99.90;;;;;;5012639;28;20172;-84
2022/07/26 01:02:25;;;;;;;10.85;2.35;;;19.40;99.90;;;;;;5012348;28;20169;-82
2022/07/26 01:04:51;;;;;;;7.00;1.77;;;19.40;99.90;;;;;;5014598;28;20176;-83
2022/07/26 01:07:17;;;;;;;6.30;1.48;;;19.30;99.90;;;;;;5015813;28;20196;-79
2022/07/26 01:09:44;;;;;;;9.10;1.63;;;19.20;99.90;;;;;;5016011;28;20207;-80
2022/07/26 01:12:10;;;;;;;12.35;2.58;;;19.20;99.90;;;;;;5016349;28;20175;-83
2022/07/26 01:14:36;;;;;;;4.05;1.63;;;19.20;99.90;;;;;;5014851;28;20708;-83
2022/07/26 01:17:01;;;;;;;10.55;1.50;;;19.20;99.90;;;;;;5015655;28;20270;-83
2022/07/26 01:19:27;;;;;;;6.80;1.92;;;19.30;99.90;;;;;;5015721;28;20580;-80
2022/07/26 01:21:53;;;;;;;9.13;1.60;;;19.30;99.90;;;;;;5015448;28;20168;-82
2022/07/26 01:24:18;;;;;;;11.70;1.90;;;19.30;99.90;;;;;;5015546;28;20624;-84
2022/07/26 01:26:44;;;;;;;12.38;1.92;;;19.30;99.90;;;;;;5015582;28;20191;-81
2022/07/26 01:29:10;;;;;;;9.73;1.98;;;19.40;99.90;;;;;;5015396;28;20177;-79
2022/07/26 01:31:36;;;;;;;7.43;2.00;;;19.40;99.90;;;;;;5015208;28;20248;-79
2022/07/26 01:34:01;;;;;;;3.53;1.58;;;19.40;99.90;;;;;;5015200;28;20196;-79
2022/07/26 01:36:27;;;;;;;8.23;1.85;;;19.50;99.90;;;;;;5015296;28;20192;-80
2022/07/26 01:38:53;;;;;;;7.57;1.95;;;19.40;99.90;;;;;;5015145;28;20226;-79
2022/07/26 01:41:19;;;;;;;13.43;2.35;;;19.40;99.90;;;;;;5014961;28;20168;-81
2022/07/26 01:43:44;;;;;;;5.10;1.85;;;19.20;99.90;;;;;;5014917;28;20251;-82
2022/07/26 01:46:12;;;;;;;9.38;1.80;;;19.10;99.90;;;;;;5013877;28;20197;-84
2022/07/26 01:48:38;;;;;;;12.02;2.10;;;19.20;99.90;;;;;;5014049;28;20226;-80
2022/07/26 01:51:04;;;;;;;6.55;1.83;;;19.30;99.90;;;;;;5015196;28;20164;-80
2022/07/26 01:53:30;;;;;;;12.40;2.25;;;19.20;99.90;;;;;;5014772;28;20322;-79
2022/07/26 01:55:55;;;;;;;8.40;1.90;;;19.20;99.90;;;;;;5014919;28;20704;-80
2022/07/26 01:58:21;;;;;;;8.45;2.17;;;19.30;99.90;;;;;;5014927;28;20326;-80
2022/07/26 02:00:47;;;;;;;16.75;3.20;;;19.30;99.90;;;;;;5014674;28;20533;-80
2022/07/26 02:03:13;;;;;;;12.40;2.33;;;19.40;99.90;;;;;;5014885;28;20218;-80
2022/07/26 02:05:39;;;;;;;6.90;2.30;;;19.60;99.90;;;;;;5014619;28;20608;-81
2022/07/26 02:08:04;;;;;;;13.93;2.60;;;19.50;99.90;;;;;;5014678;28;20247;-79
2022/07/26 02:13:14;;;;;;;13.90;2.03;;;19.70;99.90;;;;;;5015166;28;20183;-80
2022/07/26 02:15:40;;;;;;;9.27;2.03;;;19.50;99.90;;;;;;5014823;28;20607;-82
2022/07/26 02:18:06;;;;;;;14.85;2.33;;;19.40;99.90;;;;;;5013040;28;20219;-81
2022/07/26 02:20:32;;;;;;;10.27;2.33;;;19.20;99.90;;;;;;5013916;28;20169;-82
2022/07/26 02:22:59;;;;;;;9.75;2.25;;;19.30;99.90;;;;;;5013127;28;20212;-80
2022/07/26 02:25:26;;;;;;;3.80;1.77;;;19.20;99.90;;;;;;5014494;28;20244;-83
2022/07/26 02:27:51;;;;;;;7.75;2.00;;;19.30;99.90;;;;;;5013250;28;20274;-82
2022/07/26 02:30:17;;;;;;;14.27;2.42;;;19.40;99.90;;;;;;5013236;28;20165;-80
2022/07/26 02:32:43;;;;;;;14.13;2.50;;;19.50;99.90;;;;;;5014291;28;20660;-82
2022/07/26 02:35:09;;;;;;;15.25;2.20;;;19.40;99.90;;;;;;5013100;28;20191;-80
2022/07/26 02:37:35;;;;;;;11.25;2.60;;;19.20;99.90;;;;;;5012672;28;20686;-81
2022/07/26 02:40:01;;;;;;;6.13;1.85;;;19.30;99.90;;;;;;5014093;28;20188;-80
2022/07/26 02:42:27;;;;;;;10.95;2.17;;;19.30;99.90;;;;;;5013124;28;20603;-80
2022/07/26 02:44:53;;;;;;;13.20;1.85;;;19.30;99.90;;;;;;5014092;28;20244;-79
2022/07/26 02:47:19;;;;;;;16.15;2.53;;;19.30;99.90;;;;;;5012437;28;20531;-80
2022/07/26 02:49:44;;;;;;;14.90;1.73;;;19.30;99.90;;;;;;5013743;28;20164;-79
2022/07/26 02:52:10;;;;;;;9.57;2.65;;;19.20;99.90;;;;;;5014238;28;20172;-80
2022/07/26 02:54:36;;;;;;;13.82;2.80;;;19.20;99.90;;;;;;5014162;28;20175;-82
2022/07/26 02:57:02;;;;;;;11.63;2.03;;;19.30;99.90;;;;;;5013600;28;20184;-80
2022/07/26 02:59:28;;;;;;;14.02;3.15;;;19.30;99.90;;;;;;5013783;28;20571;-79
2022/07/26 03:01:53;;;;;;;23.08;2.97;;;19.30;99.90;;;;;;5013591;28;20533;-79
2022/07/26 03:04:19;;;;;;;8.60;2.22;;;19.30;99.90;;;;;;5013890;28;20180;-80
2022/07/26 03:06:45;;;;;;;5.65;1.88;;;19.30;99.90;;;;;;5017316;28;20192;-79
2022/07/26 03:09:11;;;;;;;12.75;2.70;;;19.30;99.90;;;;;;5016280;28;20184;-80
2022/07/26 03:11:36;;;;;;;10.93;2.70;;;19.30;99.90;;;;;;5012458;28;20171;-80
2022/07/26 03:14:02;;;;;;;5.57;2.65;;;19.30;99.90;;;;;;5014173;28;20172;-80
2022/07/26 03:16:28;;;;;;;16.98;3.22;;;19.40;99.90;;;;;;5013422;28;20274;-81
2022/07/26 03:18:53;;;;;;;15.88;2.85;;;19.30;99.90;;;;;;5013517;28;20254;-80
2022/07/26 03:21:19;;;;;;;19.08;2.97;;;19.30;99.90;;;;;;5013164;28;20592;-81
2022/07/26 03:23:45;;;;;;;14.32;2.90;;;19.30;99.90;;;;;;5013343;28;20271;-80
2022/07/26 03:26:10;;;;;;;13.98;3.55;;;19.20;99.90;;;;;;5013108;28;20832;-80
2022/07/26 03:28:36;;;;;;;18.80;3.53;;;19.10;99.90;;;;;;5011812;28;20160;-80
2022/07/26 03:31:02;;;;;;;8.98;2.88;;;19.20;99.90;;;;;;5013369;28;20207;-81
2022/07/26 03:33:28;;;;;;;17.48;2.70;;;19.30;99.90;;;;;;5013332;28;20165;-82
2022/07/26 03:35:54;;;;;;;14.70;2.72;;;19.30;99.90;;;;;;5013031;28;20529;-83
2022/07/26 03:38:20;;;;;;;14.88;2.63;;;19.30;99.90;;;;;;5013125;28;20202;-80
2022/07/26 03:40:46;;;;;;;17.08;3.20;;;19.40;99.90;;;;;;5011930;28;20180;-79
2022/07/26 03:43:12;;;;;;;15.50;2.67;;;19.50;99.90;;;;;;5013161;28;20172;-81
2022/07/26 03:45:38;;;;;;;18.33;2.80;;;19.40;99.90;;;;;;5013008;28;20267;-80
2022/07/26 03:48:04;;;;;;;17.48;3.28;;;19.40;99.90;;;;;;5011724;28;20176;-81
2022/07/26 03:50:29;;;;;;;13.27;2.75;;;19.20;99.90;;;;;;5013238;28;20165;-80
2022/07/26 03:52:55;;;;;;;11.45;2.40;;;19.20;99.90;;;;;;5013180;28;20180;-81
2022/07/26 03:58:05;;;;;;;18.10;3.80;;;19.30;99.90;;;;;;5013190;28;20227;-80
2022/07/26 04:00:30;;;;;;;18.67;2.75;;;19.50;99.90;;;;;;5012669;28;20719;-79
2022/07/26 04:02:56;;;;;;;9.25;2.78;;;19.40;99.90;;;;;;5012515;28;20179;-80
2022/07/26 04:05:22;;;;;;;18.90;3.53;;;19.30;99.90;;;;;;5011229;28;20184;-80
2022/07/26 04:07:47;;;;;;;10.27;2.72;;;19.30;99.90;;;;;;5012490;28;20171;-79
2022/07/26 04:10:14;;;;;;;15.23;2.97;;;19.50;99.90;;;;;;5014193;28;20180;-80
2022/07/26 04:12:40;;;;;;;20.90;3.53;;;19.30;99.90;;;;;;5015356;28;20251;-80
2022/07/26 04:15:06;;;;;;;18.75;3.22;;;19.30;99.90;;;;;;5015405;28;20200;-79
2022/07/26 04:17:37;;;;;;;17.95;3.17;;;19.30;99.90;;;;;;5012914;28;20185;-80
2022/07/26 04:20:04;;;;;;;6.50;2.70;;;19.20;99.90;;;;;;5012157;28;20684;-81
2022/07/26 04:22:30;;;;;;;17.75;2.80;;;19.40;99.90;;;;;;5012804;28;20251;-79
2022/07/26 04:24:56;;;;;;;8.85;2.65;;;19.40;99.90;;;;;;5011624;28;20204;-79
2022/07/26 04:27:21;;;;;;;16.40;3.30;;;19.20;99.90;;;;;;5012757;28;20188;-80
2022/07/26 04:29:47;;;;;;;13.02;2.40;;;19.10;99.90;;;;;;5012997;28;20528;-79
2022/07/26 04:32:13;;;;;;;12.48;3.55;;;19.10;99.90;;;;;;5012729;28;20592;-80
2022/07/26 04:34:38;;;;;;;12.20;3.00;;;19.00;99.90;;;;;;5011565;28;20226;-80
2022/07/26 04:37:04;;;;;;;11.95;2.55;;;19.00;99.90;;;;;;5013702;28;20181;-80
2022/07/26 04:39:29;;;;;;;8.38;2.35;;;19.10;99.90;;;;;;5016838;28;20204;-82
2022/07/26 04:41:55;;;;;;;21.42;3.80;;;19.00;99.90;;;;;;5018967;28;20196;-79
2022/07/26 04:44:20;;;;;;;14.73;2.35;;;19.10;99.90;;;;;;5018725;28;20183;-79
2022/07/26 04:46:46;;;;;;;9.52;2.47;;;19.10;99.90;;;;;;5018930;28;20637;-79
2022/07/26 04:49:12;;;;;;;10.40;2.85;;;19.10;99.90;;;;;;5017400;28;20184;-79
2022/07/26 04:51:38;;;;;;;10.00;2.63;;;19.00;99.90;;;;;;5020207;28;20192;-82
2022/07/26 04:54:04;;;;;;;13.98;2.90;;;19.10;99.90;;;;;;5018854;28;20188;-79
2022/07/26 04:56:29;;;;;;;15.05;3.50;;;19.10;99.90;;;;;;5016465;28;20176;-80
2022/07/26 04:58:55;;;;;;;31.35;4.15;;;19.20;99.90;;;;;;5015791;28;20204;-79
2022/07/26 05:01:20;;;;;;;9.98;3.05;;;19.20;99.90;;;;;;5015868;28;20176;-80
2022/07/26 05:03:46;;;;;;;14.38;3.00;;;19.30;99.90;;;;;;5015805;28;20629;-79
2022/07/26 05:06:11;;;;;;;13.63;3.40;;;19.20;99.90;;;;;;5017548;28;20215;-79
2022/07/26 05:08:42;;;;;;;9.40;2.67;;;19.10;99.90;;;;;;5017410;28;20616;-80
2022/07/26 05:11:07;;;;;;;14.50;2.88;;;18.90;99.90;;;;;;5017562;28;20169;-80
2022/07/26 05:13:33;;;;;;;14.60;3.42;;;19.00;99.90;;;;;;5016618;28;20172;-79
2022/07/26 05:15:59;;;;;;;12.75;2.95;;;19.10;99.90;;;;;;5018596;28;20185;-80
2022/07/26 05:18:25;;;;;;;12.43;2.63;;;19.00;99.90;;;;;;5018642;28;20200;-82
2022/07/26 05:20:51;;;;;;;9.38;2.92;;;19.10;99.90;;;;;;5017961;28;20212;-81
2022/07/26 05:23:18;;;;;;;22.95;3.47;;;19.30;99.90;;;;;;5022773;28;20191;-82
2022/07/26 05:25:47;;;;;;;14.18;3.05;;;19.30;99.90;;;;;;5017363;28;20196;-83
2022/07/26 05:28:17;;;;;;;11.05;3.22;;;19.70;99.90;;;;;;5027650;28;20156;-82
2022/07/26 05:30:44;;;;;;;9.30;3.63;;;19.50;99.90;;;;;;5018301;28;20171;-84
2022/07/26 05:33:10;;;;;;;15.75;2.92;;;19.60;99.90;;;;;;5019486;28;20648;-82
2022/07/26 05:35:36;;;;;;;7.30;3.08;;;19.70;99.90;;;;;;5026840;28;20193;-82
2022/07/26 05:38:01;;;;;;;14.27;3.25;;;19.90;99.90;;;;;;5031814;28;20188;-87
2022/07/26 05:40:27;;;;;;;6.88;3.13;;;19.70;99.90;;;;;;5029930;28;20264;-86
2022/07/26 05:42:53;;;;;;;7.82;2.55;;;19.70;99.90;;;;;;5024838;28;20171;-85
2022/07/26 05:45:18;;;;;;;8.60;3.13;;;19.60;99.90;;;;;;5022028;28;20227;-82
2022/07/26 05:47:44;;;;;;;10.65;2.92;;;19.70;99.90;;;;;;5021342;28;20272;-82
2022/07/26 05:50:10;;;;;;;15.18;3.00;;;19.80;99.90;;;;;;5018239;28;20188;-82
2022/07/26 05:52:36;;;;;;;6.57;2.60;;;19.80;99.90;;;;;;5022956;28;20195;-83
2022/07/26 05:55:02;;;;;;;16.38;3.17;;;20.00;99.90;;;;;;5018393;28;20180;-84
2022/07/26 05:57:28;;;;;;;11.00;2.55;;;20.10;99.90;;;;;;5017121;28;20191;-83
2022/07/26 05:59:54;;;;;;;15.10;2.95;;;20.20;99.90;;;;;;5024249;28;20251;-83
2022/07/26 06:02:23;;;;;;;10.20;2.80;;;20.40;99.90;;;;;;5035353;28;20300;-83
2022/07/26 06:04:49;;;;;;;10.07;2.75;;;20.80;99.90;;;;;;5011176;28;20240;-84
2022/07/26 06:07:17;;;;;;;11.00;2.85;;;21.10;99.90;;;;;;5028938;28;20195;-82
2022/07/26 06:09:44;;;;;;;12.75;2.50;;;21.30;99.90;;;;;;5027057;28;20231;-80
2022/07/26 06:12:09;;;;;;;17.52;3.17;;;21.40;99.90;;;;;;5026340;28;20264;-81
2022/07/26 06:14:40;;;;;;;14.85;2.63;;;21.40;99.90;;;;;;5027121;28;20168;-81
2022/07/26 06:17:06;;;;;;;6.10;2.58;;;21.40;99.90;;;;;;5027808;28;20200;-82
2022/07/26 06:19:32;;;;;;;9.55;2.25;;;21.40;99.90;;;;;;5033880;28;20214;-82
2022/07/26 06:21:59;;;;;;;9.57;2.38;;;21.50;99.90;;;;;;5032345;28;20177;-84
2022/07/26 06:24:24;;;;;;;10.40;2.22;;;21.50;99.90;;;;;;5013475;28;20168;-85
2022/07/26 06:26:52;;;;;;;6.47;1.80;;;21.50;99.90;;;;;;5017207;28;20189;-84
2022/07/26 06:29:17;;;;;;;8.00;1.73;;;21.50;99.90;;;;;;5019373;28;20183;-83
2022/07/26 06:31:44;;;;;;;8.20;1.92;;;21.40;99.90;;;;;;5020583;28;20543;-83
2022/07/26 06:34:10;;;;;;;8.30;2.00;;;21.30;99.90;;;;;;5022266;28;20180;-84
2022/07/26 06:36:35;;;;;;;11.75;1.73;;;21.30;99.90;;;;;;5013863;28;20549;-83
2022/07/26 06:39:01;;;;;;;16.67;2.28;;;21.20;99.90;;;;;;5013096;28;20216;-81
2022/07/26 06:41:27;;;;;;;3.58;2.13;;;20.90;99.90;;;;;;5013902;28;20504;-82
2022/07/26 06:43:52;;;;;;;6.75;2.15;;;20.80;99.90;;;;;;5012841;28;20181;-82
2022/07/26 06:46:19;;;;;;;13.23;2.22;;;20.70;99.90;;;;;;5012622;28;20287;-82
2022/07/26 06:48:45;;;;;;;3.67;1.40;;;20.50;99.90;;;;;;5012340;28;20179;-82
2022/07/26 06:51:11;;;;;;;14.45;2.05;;;20.60;99.90;;;;;;5013756;28;20169;-82
2022/07/26 06:53:37;;;;;;;8.90;2.20;;;20.70;99.90;;;;;;5012413;28;20227;-82
2022/07/26 06:56:03;;;;;;;11.82;2.30;;;20.70;99.90;;;;;;5013682;28;20279;-81
2022/07/26 06:58:28;;;;;;;5.25;1.77;;;20.60;99.90;;;;;;5013724;28;20290;-86
2022/07/26 07:00:54;;;;;;;3.90;2.00;;;20.70;99.90;;;;;;5013069;28;20169;-86
2022/07/26 07:03:20;;;;;;;7.82;2.30;;;20.80;99.90;;;;;;5012890;28;20720;-86
2022/07/26 07:05:46;;;;;;;10.48;2.03;;;20.90;99.90;;;;;;5013536;28;20195;-85
2022/07/26 07:08:12;;;;;;;12.88;2.28;;;20.70;99.90;;;;;;5013282;28;20172;-85
2022/07/26 07:10:38;;;;;;;7.93;1.80;;;20.80;99.90;;;;;;5014684;28;20248;-86
2022/07/26 07:13:03;;;;;;;4.70;2.00;;;20.90;99.90;;;;;;5013452;28;20592;-86
2022/07/26 07:15:29;;;;;;;7.97;2.38;;;21.00;99.90;;;;;;5014992;28;20375;-86
2022/07/26 07:17:55;;;;;;;8.05;2.40;;;21.20;99.90;;;;;;5014656;28;20172;-86
2022/07/26 07:20:20;;;;;;;6.80;2.25;;;21.30;99.90;;;;;;5013451;28;20656;-86
2022/07/26 07:22:46;;;;;;;8.10;1.70;;;21.30;99.90;;;;;;5013029;28;20184;-85
2022/07/26 07:25:12;;;;;;;9.35;2.33;;;21.20;99.90;;;;;;5013419;28;20211;-86
2022/07/26 07:27:37;;;;;;;10.00;1.73;;;21.20;99.90;;;;;;5013755;28;20200;-87
2022/07/26 07:30:27;;;;;;;3.58;1.52;;;21.10;99.90;;;;;;5025379;28;20168;-87
2022/07/26 07:32:58;;;;;;;7.85;2.10;;;21.10;99.90;;;;;;5019959;28;20203;-87
2022/07/26 07:35:25;;;;;;;9.40;2.58;;;21.20;99.90;;;;;;5028575;28;20171;-87
2022/07/26 07:37:56;;;;;;;7.43;2.03;;;21.30;99.90;;;;;;5025945;28;20164;-84
2022/07/26 07:40:22;;;;;;;6.63;2.30;;;21.30;99.90;;;;;;5019620;28;20189;-87
2022/07/26 07:42:51;;;;;;;5.38;2.35;;;21.40;99.90;;;;;;5017432;28;20187;-86
2022/07/26 07:45:22;;;;;;;14.68;1.67;;;21.30;99.90;;;;;;5021962;28;20177;-90
2022/07/26 07:47:48;;;;;;;4.50;1.95;;;21.20;99.90;;;;;;5011865;28;20248;-83
2022/07/26 07:51:07;;;;;;;6.30;2.20;;;21.20;99.90;;;;;;5020736;28;20195;-86
2022/07/26 07:53:33;;;;;;;4.28;1.75;;;21.10;99.90;;;;;;5017578;28;20168;-88
2022/07/26 07:56:00;;;;;;;8.15;1.85;;;21.20;99.90;;;;;;5017573;28;20272;-88
2022/07/26 07:58:26;;;;;;;7.00;2.15;;;21.40;99.90;;;;;;5016283;28;20579;-86
2022/07/26 08:00:52;;;;;;;9.05;2.00;;;21.20;99.90;;;;;;5013843;28;20179;-88
2022/07/26 08:03:18;;;;;;;6.53;1.50;;;21.30;99.90;;;;;;5015470;28;20199;-90
2022/07/26 08:05:43;;;;;;;12.65;1.90;;;21.30;99.90;;;;;;5018717;28;20184;-85
2022/07/26 08:08:16;;;;;;;8.55;2.67;;;21.30;99.90;;;;;;5026464;28;20228;-87
2022/07/26 08:10:41;;;;;;;10.48;1.92;;;21.30;99.90;;;;;;5028479;28;20177;-87
2022/07/26 08:13:07;;;;;;;10.20;2.10;;;21.20;99.90;;;;;;5038319;28;20199;-87
2022/07/26 08:15:42;;;;;;;9.35;1.90;;;21.20;99.90;;;;;;5031556;28;20179;-84
2022/07/26 08:18:07;;;;;;;11.75;1.77;;;21.10;99.90;;;;;;5027574;28;20203;-87
2022/07/26 08:20:33;;;;;;;4.93;1.90;;;21.20;99.90;;;;;;5019991;28;20208;-86
2022/07/26 08:23:19;;;;;;;14.00;1.92;;;21.40;99.90;;;;;;5026483;28;20263;-87
2022/07/26 08:25:44;;;;;;;8.27;1.77;;;21.60;99.90;;;;;;5014271;28;20731;-88
2022/07/26 08:28:15;;;;;;;2.83;1.55;;;21.40;99.90;;;;;;5027823;28;20183;-87
2022/07/26 08:30:42;;;;;;;9.05;2.22;;;21.60;99.90;;;;;;5029123;28;20168;-86
2022/07/26 08:33:07;;;;;;;4.95;1.73;;;21.80;99.90;;;;;;5023864;28;20655;-82
2022/07/26 08:35:33;;;;;;;3.05;1.50;;;22.00;99.90;;;;;;5034842;28;20167;-81
2022/07/26 08:38:00;;;;;;;8.55;1.88;;;22.00;99.90;;;;;;5047018;28;20190;-84
2022/07/26 08:40:41;;;;;;;3.63;1.48;;;21.90;99.90;;;;;;5050629;28;20243;-87
2022/07/26 08:43:07;;;;;;;9.27;1.70;;;22.00;99.90;;;;;;5048099;28;20184;-88
2022/07/26 08:45:33;;;;;;;3.00;1.42;;;22.30;99.90;;;;;;5050363;28;20516;-86
2022/07/26 08:48:00;;;;;;;5.25;1.77;;;22.30;99.90;;;;;;5045650;28;20183;-88
2022/07/26 08:50:28;;;;;;;6.43;1.73;;;22.20;99.90;;;;;;5054405;28;20246;-85
2022/07/26 08:52:59;;;;;;;2.83;1.40;;;22.50;99.90;;;;;;5035058;28;20674;-80
2022/07/26 08:55:25;;;;;;;4.70;1.50;;;22.80;99.90;;;;;;5041183;28;20202;-84
2022/07/26 08:57:50;;;;;;;5.72;1.67;;;23.10;99.90;;;;;;5037696;28;20163;-84
2022/07/26 09:00:17;;;;;;;10.23;1.70;;;23.20;99.90;;;;;;5037303;28;20531;-85
2022/07/26 09:02:44;;;;;;;5.88;1.10;;;23.30;99.90;;;;;;5037805;28;20175;-84
2022/07/26 09:05:09;;;;;;;7.90;2.17;;;23.60;99.90;;;;;;5038878;28;20167;-85
2022/07/26 09:07:38;;;;;;;7.07;1.40;;;23.70;99.90;;;;;;5037223;28;20194;-84
2022/07/26 09:10:10;;;;;;;10.60;1.70;;;23.70;99.90;;;;;;5037482;28;20214;-84
2022/07/26 09:12:38;;;;;;;7.30;1.80;;;24.00;99.90;;;;;;5037383;28;20187;-85
2022/07/26 09:15:07;;;;;;;7.90;1.33;;;24.10;99.90;;;;;;5038041;28;20175;-82
2022/07/26 09:17:42;;;;;;;6.53;1.55;;;24.30;99.90;;;;;;5037779;28;20594;-83
2022/07/26 09:20:08;;;;;;;10.10;1.80;;;24.20;99.90;;;;;;5037561;28;20575;-85
2022/07/26 09:22:54;;;;;;;4.65;1.45;;;23.70;99.90;;;;;;5037560;28;20218;-85
2022/07/26 09:25:22;;;;;;;3.67;1.40;;;23.50;99.90;;;;;;5034959;28;20225;-82
2022/07/26 09:27:47;;;;;;;3.13;1.30;;;23.50;99.90;;;;;;5034325;28;20682;-85
2022/07/26 09:30:13;;;;;;;2.78;1.70;;;23.80;99.90;;;;;;5034284;28;20176;-85
2022/07/26 09:32:39;;;;;;;6.95;1.55;;;24.10;99.90;;;;;;5034801;28;20168;-85
2022/07/26 09:35:16;;;;;;;5.53;1.58;;;24.50;99.90;;;;;;5034517;28;20171;-83
2022/07/26 09:37:43;;;;;;;5.07;1.50;;;24.20;99.90;;;;;;5034735;28;20171;-85
2022/07/26 09:40:13;;;;;;;4.63;1.92;;;24.10;99.90;;;;;;5035822;28;20640;-87
2022/07/26 09:43:02;;;;;;;8.90;2.22;;;24.10;99.90;;;;;;5034180;28;20176;-85
2022/07/26 09:45:30;;;;;;;3.20;1.40;;;24.30;99.90;;;;;;5035479;28;20202;-84
2022/07/26 09:47:56;;;;;;;4.68;1.67;;;24.30;99.90;;;;;;5035193;28;20256;-85
2022/07/26 09:50:27;;;;;;;3.58;1.38;;;24.30;99.90;;;;;;5033804;28;20684;-85
2022/07/26 09:53:00;;;;;;;4.15;1.40;;;24.10;99.90;;;;;;5034044;28;20233;-85
2022/07/26 09:55:26;;;;;;;6.95;1.60;;;24.00;99.90;;;;;;5033691;28;20176;-84
2022/07/26 09:57:52;;;;;;;5.78;1.55;;;24.50;99.90;;;;;;5034084;28;20654;-85
2022/07/26 10:00:18;;;;;;;4.28;1.33;;;24.60;99.90;;;;;;5035577;28;20644;-86
2022/07/26 10:02:43;;;;;;;4.63;1.30;;;24.50;99.90;;;;;;5035015;28;20179;-85
2022/07/26 10:05:09;;;;;;;7.38;1.30;;;24.50;99.90;;;;;;5033780;28;20164;-86
2022/07/26 10:07:36;;;;;;;3.35;1.35;;;24.60;99.90;;;;;;5034421;28;20330;-84
2022/07/26 10:10:24;;;;;;;3.58;1.38;;;24.70;99.90;;;;;;5033995;28;20248;-84
2022/07/26 10:12:51;;;;;;;3.00;1.35;;;25.10;99.90;;;;;;5035273;28;20172;-83
2022/07/26 10:15:42;;;;;;;3.60;1.83;;;25.30;99.90;;;;;;5033737;28;20175;-83
2022/07/26 10:18:09;;;;;;;2.85;1.38;;;25.60;99.90;;;;;;5024286;28;20180;-85
2022/07/26 10:20:47;;;;;;;3.60;1.15;;;25.50;99.90;;;;;;5034172;28;20167;-85
2022/07/26 10:23:36;;;;;;;4.50;1.70;;;25.50;99.90;;;;;;5033684;28;20593;-84
2022/07/26 10:26:05;;;;;;;2.05;1.20;;;25.40;99.90;;;;;;5035694;28;20235;-85
2022/07/26 10:28:32;;;;;;;7.07;1.35;;;24.90;99.90;;;;;;5033858;28;20232;-84
2022/07/26 10:31:19;;;;;;;1.42;1.10;;;24.70;99.90;;;;;;5034518;28;20175;-85
2022/07/26 10:33:50;;;;;;;2.72;1.45;;;24.50;99.90;;;;;;5034205;28;20266;-83
2022/07/26 10:36:23;;;;;;;5.32;1.58;;;24.50;99.90;;;;;;5033617;28;20192;-84
2022/07/26 10:39:02;;;;;;;6.22;1.35;;;24.50;99.90;;;;;;5033847;28;20553;-84
2022/07/26 10:41:37;;;;;;;2.42;1.52;;;24.70;99.90;;;;;;5035016;28;20164;-84
2022/07/26 10:44:22;;;;;;;4.55;1.67;;;25.10;99.90;;;;;;5033471;28;20179;-84
2022/07/26 10:47:00;;;;;;;2.95;1.42;;;25.10;99.90;;;;;;5025034;28;20207;-84
2022/07/26 10:49:40;;;;;;;1.40;1.02;;;25.20;99.90;;;;;;5027816;28;20188;-84
2022/07/26 10:52:39;;;;;;;2.65;1.20;;;24.80;99.90;;;;;;5038862;28;20208;-86
2022/07/26 10:55:05;;;;;;;3.28;1.02;;;24.60;99.90;;;;;;5022418;28;20173;-87
2022/07/26 10:58:10;;;;;;;4.40;1.00;;;24.10;99.90;;;;;;5029696;28;20192;-87
2022/07/26 11:00:36;;;;;;;5.40;0.88;;;23.60;99.90;;;;;;5023203;28;20715;-88
2022/07/26 11:03:01;;;;;;;9.25;1.00;;;23.30;99.90;;;;;;5016915;28;20211;-85
2022/07/26 11:05:30;;;;;;;1.58;0.90;;;23.60;99.90;;;;;;5026188;28;20168;-90
2022/07/26 11:08:07;;;;;;;1.65;0.70;;;23.60;99.90;;;;;;5014551;28;20252;-85
2022/07/26 11:10:37;;;;;;;3.80;0.90;;;23.40;99.90;;;;;;5015085;28;20176;-86
2022/07/26 11:13:18;;;;;;;2.28;0.95;;;23.00;99.90;;;;;;5013797;28;20168;-85
2022/07/26 11:15:49;;;;;;;1.10;0.98;;;23.10;99.90;;;;;;5013758;28;20188;-84
2022/07/26 11:18:26;;;;;;;2.97;1.27;;;23.30;99.90;;;;;;5025086;28;20717;-84
2022/07/26 11:20:54;;;;;;;1.70;1.10;;;23.50;99.90;;;;;;5015516;28;20695;-86
2022/07/26 11:23:25;;;;;;;1.73;0.85;;;23.70;99.90;;;;;;5034298;28;20165;-85
2022/07/26 11:26:13;;;;;;;1.50;0.90;;;24.00;99.90;;;;;;5013376;28;20196;-84
2022/07/26 11:28:49;;;;;;;2.35;1.27;;;23.70;99.90;;;;;;5013260;28;20168;-86
2022/07/26 11:31:17;;;;;;;1.92;0.82;;;23.80;99.90;;;;;;5021486;28;20727;-88
2022/07/26 11:33:47;;;;;;;0.73;0.70;;;23.90;99.90;;;;;;5014806;28;20175;-87
2022/07/26 11:36:13;;;;;;;2.00;0.80;;;23.90;99.90;;;;;;5014322;28;20184;-88
2022/07/26 11:38:50;;;;;;;1.65;1.10;;;24.10;99.90;;;;;;5013767;28;20529;-88
2022/07/26 11:41:25;;;;;;;1.42;0.80;;;23.90;99.90;;;;;;5018238;28;20172;-87
2022/07/26 11:43:52;;;;;;;2.33;1.00;;;24.00;99.90;;;;;;5021541;28;20182;-86
2022/07/26 11:46:19;;;;;;;1.10;1.00;;;24.30;99.90;;;;;;5015601;28;20203;-86
2022/07/26 11:48:56;;;;;;;1.38;0.90;;;24.20;99.90;;;;;;5016303;28;20176;-85
2022/07/26 11:51:23;;;;;;;2.75;0.98;;;24.10;99.90;;;;;;5014165;28;20183;-84
2022/07/26 11:53:50;;;;;;;1.30;0.68;;;24.30;99.90;;;;;;5016290;28;20177;-84
2022/07/26 11:56:19;;;;;;;0.60;0.60;;;24.20;99.90;;;;;;5013575;28;20207;-85
2022/07/26 11:58:46;;;;;;;4.68;0.68;;;24.00;99.90;;;;;;5012912;28;20208;-83
2022/07/26 12:01:14;;;;;;;2.70;1.02;;;24.10;99.90;;;;;;5012792;28;20173;-86
2022/07/26 12:03:47;;;;;;;9.90;1.00;;;23.90;99.90;;;;;;5023380;28;20176;-86
2022/07/26 12:06:19;;;;;;;3.55;1.20;;;23.80;99.90;;;;;;5016052;28;20203;-86
2022/07/26 12:08:55;;;;;;;4.22;1.80;;;24.10;99.90;;;;;;5029867;28;20179;-87
2022/07/26 12:11:43;;;;;;;1.73;1.63;;;24.10;99.90;;;;;;5045582;28;20174;-86
2022/07/26 12:14:10;;;;;;;1.73;1.42;;;24.30;99.90;;;;;;5042302;28;20160;-88
2022/07/26 12:16:47;;;;;;;1.70;1.42;;;24.10;99.90;;;;;;5027756;28;20255;-88
2022/07/26 12:19:35;;;;;;;1.50;1.10;;;24.40;99.90;;;;;;5033571;28;20268;-87
2022/07/26 12:22:11;;;;;;;1.30;1.20;;;24.00;99.90;;;;;;5037439;28;20172;-86
2022/07/26 12:24:41;;;;;;;2.75;1.05;;;24.00;99.90;;;;;;5036203;28;20206;-86
2022/07/26 12:27:09;;;;;;;3.70;1.10;;;23.70;99.90;;;;;;5036157;28;20193;-86
2022/07/26 12:29:36;;;;;;;0.90;0.90;;;23.90;99.90;;;;;;5034859;28;20206;-85
2022/07/26 12:32:05;;;;;;;2.35;0.90;;;24.30;99.90;;;;;;5032946;28;20164;-85
2022/07/26 12:34:31;;;;;;;4.45;1.00;;;24.30;99.90;;;;;;5030519;28;20628;-84
2022/07/26 12:37:10;;;;;;;2.88;1.17;;;24.20;99.90;;;;;;5019163;28;20224;-84
2022/07/26 12:39:36;;;;;;;0.93;0.80;;;24.30;99.90;;;;;;5019365;28;20204;-83
2022/07/26 12:42:22;;;;;;;13.13;1.00;;;24.40;99.90;;;;;;5021949;28;20172;-86
2022/07/26 12:44:48;;;;;;;0.93;0.80;;;24.40;99.90;;;;;;5014250;28;20651;-84
2022/07/26 12:47:13;;;;;;;0.65;0.65;;;24.00;99.90;;;;;;5015420;28;20189;-86
2022/07/26 12:49:39;;;;;;;1.70;0.80;;;23.70;99.90;;;;;;5015411;28;20172;-85
2022/07/26 12:52:05;;;;;;;0.60;0.60;;;23.60;99.90;;;;;;5030466;28;20207;-85
2022/07/26 12:54:30;;;;;;;1.00;0.90;;;23.60;99.90;;;;;;5012794;28;20176;-84